Time;durP1;ratioP1;P1;durP2;ratioP2;P2;SDS_P1;SDS_P2;PMS_P1;PMS_P2;Temp;Humidity;BMP_temperature;BMP_pressure;BME280_temperature;BME280_humidity;BME280_pressure;Samples;Min_cycle;Max_cycle;Signal;HPM_P1;HPM_P2
2023/07/15 00:01:45;;;;;;;8.05;3.15;;;;;;;25.39;100.00;101147.81;5076743;28;20037;-69
2023/07/15 00:04:13;;;;;;;5.30;3.17;;;;;;;25.17;100.00;101154.63;5073842;28;20028;-69
2023/07/15 00:06:39;;;;;;;6.13;3.00;;;;;;;25.32;100.00;101099.69;5074129;28;20028;-69
2023/07/15 00:09:04;;;;;;;7.38;3.28;;;;;;;25.36;100.00;101134.16;5072163;28;20043;-69
2023/07/15 00:11:34;;;;;;;7.18;3.17;;;;;;;25.14;100.00;101071.50;5073980;28;20020;-68
2023/07/15 00:14:00;;;;;;;8.50;3.38;;;;;;;24.74;100.00;101079.50;5074025;28;20024;-68
2023/07/15 00:16:29;;;;;;;6.30;3.45;;;;;;;24.81;100.00;101116.34;5072671;28;20036;-69
2023/07/15 00:18:54;;;;;;;7.22;3.33;;;;;;;24.88;100.00;101058.56;5073799;28;20119;-68
2023/07/15 00:21:25;;;;;;;4.68;2.97;;;;;;;24.99;100.00;101080.41;5072696;28;20169;-68
2023/07/15 00:27:11;;;;;;;5.78;3.22;;;;;;;25.18;100.00;101072.94;5073774;28;20086;-69
2023/07/15 00:29:37;;;;;;;7.10;3.47;;;;;;;25.11;100.00;101095.16;5071645;28;20028;-70
2023/07/15 00:32:04;;;;;;;7.50;4.03;;;;;;;24.80;100.00;101070.44;5073668;28;20470;-69
2023/07/15 00:34:30;;;;;;;7.70;3.60;;;;;;;24.90;100.00;101105.28;5072124;28;20028;-69
2023/07/15 00:40:17;;;;;;;9.07;3.58;;;;;;;24.86;100.00;101114.25;5073654;28;20032;-68
2023/07/15 00:43:20;;;;;;;8.73;3.47;;;;;;;24.84;100.00;101123.94;5071657;28;20024;-69
2023/07/15 00:46:17;;;;;;;8.43;3.35;;;;;;;25.01;100.00;101144.44;5073086;28;20020;-69
2023/07/15 00:48:49;;;;;;;6.55;3.35;;;;;;;24.40;100.00;101077.53;5071999;28;20024;-68
2023/07/15 00:54:17;;;;;;;6.15;3.65;;;;;;;24.56;100.00;101145.75;5073156;28;19911;-71
2023/07/15 00:56:45;;;;;;;8.75;3.60;;;;;;;24.17;100.00;101139.78;5073029;28;20032;-70
2023/07/15 00:59:12;;;;;;;7.40;4.18;;;;;;;24.30;100.00;101187.44;5072795;28;20027;-68
2023/07/15 01:05:00;;;;;;;4.85;3.47;;;;;;;24.21;100.00;101188.03;5073556;28;20038;-68
2023/07/15 01:07:25;;;;;;;7.65;3.70;;;;;;;23.83;100.00;101161.88;5072911;28;20021;-68
2023/07/15 01:09:51;;;;;;;6.13;3.35;;;;;;;24.01;100.00;101176.28;5073187;28;20035;-69
2023/07/15 01:12:16;;;;;;;7.75;3.60;;;;;;;24.08;100.00;101170.66;5073257;28;20111;-70
2023/07/15 01:18:03;;;;;;;6.65;4.13;;;;;;;23.96;100.00;101165.38;5072799;28;20065;-68
2023/07/15 01:23:50;;;;;;;6.55;3.67;;;;;;;24.84;100.00;101233.22;5072646;28;20036;-69
2023/07/15 01:26:16;;;;;;;8.20;3.78;;;;;;;24.56;100.00;101182.19;5070630;28;20029;-71
2023/07/15 01:28:41;;;;;;;8.07;4.25;;;;;;;24.88;100.00;101221.69;5072600;28;20470;-69
2023/07/15 01:31:07;;;;;;;6.53;4.03;;;;;;;24.93;100.00;101220.47;5072019;28;20020;-70
2023/07/15 01:36:56;;;;;;;9.93;4.50;;;;;;;24.89;100.00;101226.81;5072779;28;20055;-71
2023/07/15 01:39:22;;;;;;;6.43;4.00;;;;;;;24.77;100.00;101186.00;5072362;28;20024;-69
2023/07/15 01:41:47;;;;;;;6.53;4.40;;;;;;;24.83;100.00;101214.22;5072338;28;20454;-69
2023/07/15 01:44:13;;;;;;;8.45;4.00;;;;;;;25.00;100.00;101194.03;5072233;28;20036;-69
2023/07/15 01:46:39;;;;;;;10.00;4.20;;;;;;;24.90;100.00;101215.44;5072470;28;20031;-69
2023/07/15 01:49:07;;;;;;;9.23;4.57;;;;;;;24.95;100.00;101170.91;5071783;28;20025;-69
2023/07/15 01:51:33;;;;;;;8.13;4.80;;;;;;;24.75;100.00;101206.09;5072455;28;20059;-69
2023/07/15 01:53:59;;;;;;;11.85;5.32;;;;;;;24.83;100.00;101206.41;5072228;28;20020;-69
2023/07/15 01:59:45;;;;;;;6.85;4.85;;;;;;;24.36;100.00;101109.03;5072441;28;20036;-69
2023/07/15 02:02:11;;;;;;;9.35;4.97;;;;;;;25.21;100.00;101215.97;5069994;28;20024;-70
2023/07/15 02:04:36;;;;;;;8.10;4.75;;;;;;;25.08;100.00;101202.94;5070532;28;20372;-69
2023/07/15 02:07:02;;;;;;;6.65;4.60;;;;;;;24.89;100.00;101176.53;5071696;28;20479;-68
2023/07/15 02:12:49;;;;;;;8.95;4.70;;;;;;;24.75;100.00;101153.19;5072289;28;20090;-69
2023/07/15 02:15:14;;;;;;;7.95;4.35;;;;;;;24.97;100.00;101148.19;5071256;28;20024;-69
2023/07/15 02:17:40;;;;;;;7.00;4.38;;;;;;;25.04;100.00;101180.66;5072242;28;20390;-70
2023/07/15 02:20:07;;;;;;;6.30;4.30;;;;;;;25.10;100.00;101192.44;5072112;28;20390;-71
2023/07/15 02:25:54;;;;;;;8.88;4.68;;;;;;;24.78;100.00;101142.59;5072200;28;20031;-70
2023/07/15 02:28:22;;;;;;;8.60;4.45;;;;;;;24.70;100.00;101140.47;5071794;28;20395;-70
2023/07/15 02:30:48;;;;;;;9.18;4.70;;;;;;;24.84;100.00;101197.66;5070494;28;20465;-69
2023/07/15 02:33:13;;;;;;;7.93;5.00;;;;;;;24.93;100.00;101151.94;5072125;28;20029;-69
2023/07/15 02:35:40;;;;;;;9.48;4.88;;;;;;;24.74;100.00;101172.38;5076316;28;20028;-69
2023/07/15 02:38:05;;;;;;;10.73;5.07;;;;;;;24.61;100.00;101159.31;5074276;28;20025;-69
2023/07/15 02:40:31;;;;;;;9.00;5.30;;;;;;;25.02;100.00;101211.19;5074641;28;20028;-69
2023/07/15 02:42:57;;;;;;;10.77;5.35;;;;;;;24.91;100.00;101205.88;5075889;28;20024;-70
2023/07/15 02:48:44;;;;;;;12.40;5.28;;;;;;;24.76;100.00;101183.50;5075945;28;20044;-71
2023/07/15 02:51:09;;;;;;;11.00;5.47;;;;;;;24.67;100.00;101145.06;5074783;28;20394;-71
2023/07/15 02:53:34;;;;;;;8.63;4.93;;;;;;;25.09;100.00;101198.59;5073780;28;20026;-71
2023/07/15 02:56:00;;;;;;;10.10;5.68;;;;;;;25.20;100.00;101220.34;5073892;28;20024;-70
2023/07/15 03:01:47;;;;;;;10.15;4.97;;;;;;;25.09;100.00;101211.59;5075450;28;20035;-71
2023/07/15 03:04:12;;;;;;;9.55;4.93;;;;;;;24.23;100.00;101114.22;5074939;28;20028;-71
2023/07/15 03:06:38;;;;;;;9.77;4.88;;;;;;;24.79;100.00;101175.47;5075288;28;20066;-71
2023/07/15 03:09:04;;;;;;;8.88;4.70;;;;;;;24.78;100.00;101163.41;5073830;28;20071;-71
2023/07/15 03:14:51;;;;;;;6.63;4.68;;;;;;;24.86;100.00;101218.34;5075460;28;20055;-71
2023/07/15 03:17:17;;;;;;;8.65;4.68;;;;;;;24.65;100.00;101212.81;5072870;28;20028;-70
2023/07/15 03:19:43;;;;;;;8.80;4.85;;;;;;;24.28;100.00;101137.31;5075169;28;20402;-70
2023/07/15 03:22:08;;;;;;;14.82;5.10;;;;;;;24.58;100.00;101176.91;5073386;28;20029;-69
2023/07/15 03:24:34;;;;;;;10.35;5.30;;;;;;;24.50;100.00;101173.97;5074816;28;20466;-70
2023/07/15 03:27:00;;;;;;;9.90;5.70;;;;;;;24.48;100.00;101142.03;5074209;28;20390;-71
2023/07/15 03:29:25;;;;;;;13.88;5.22;;;;;;;24.96;100.00;101222.00;5074532;28;20111;-70
2023/07/15 03:31:51;;;;;;;11.20;5.35;;;;;;;25.00;100.00;101210.44;5074402;28;20032;-69
2023/07/15 03:37:42;;;;;;;8.27;5.18;;;;;;;24.65;100.00;101170.34;5074988;28;20031;-71
2023/07/15 03:40:10;;;;;;;8.87;4.80;;;;;;;24.89;100.00;101171.31;5074716;28;20051;-70
2023/07/15 03:42:35;;;;;;;11.98;4.85;;;;;;;24.99;100.00;101215.75;5073133;28;20275;-69
2023/07/15 03:45:01;;;;;;;7.68;5.15;;;;;;;24.88;100.00;101187.84;5074017;28;20123;-70
2023/07/15 03:47:27;;;;;;;10.70;4.78;;;;;;;25.13;100.00;101202.63;5074182;28;20548;-69
2023/07/15 03:49:52;;;;;;;8.00;5.10;;;;;;;24.87;100.00;101162.78;5074120;28;20539;-70
2023/07/15 03:52:18;;;;;;;8.18;5.05;;;;;;;24.85;100.00;101165.50;5073981;28;20021;-69
2023/07/15 03:58:05;;;;;;;8.57;5.05;;;;;;;24.99;100.00;101164.53;5074641;28;20073;-69
2023/07/15 04:00:30;;;;;;;9.50;4.95;;;;;;;25.39;100.00;101225.97;5072034;28;20122;-70
2023/07/15 04:02:56;;;;;;;7.70;5.00;;;;;;;25.13;100.00;101166.19;5074179;28;20089;-70
2023/07/15 04:05:21;;;;;;;10.13;4.97;;;;;;;25.52;100.00;101226.78;5072408;28;20024;-69
2023/07/15 04:11:08;;;;;;;9.98;5.22;;;;;;;25.64;100.00;101240.72;5074350;28;20044;-69
2023/07/15 04:16:55;;;;;;;9.10;5.18;;;;;;;25.54;100.00;101240.53;5073994;28;20035;-70
2023/07/15 04:23:01;;;;;;;11.13;5.57;;;;;;;25.46;100.00;101249.81;5065484;28;20167;-68
2023/07/15 04:25:27;;;;;;;12.32;5.65;;;;;;;25.17;100.00;101204.09;5073470;28;20032;-68
2023/07/15 04:31:14;;;;;;;11.63;6.38;;;;;;;25.34;100.00;101250.63;5073954;28;20093;-69
2023/07/15 04:33:39;;;;;;;9.05;5.30;;;;;;;25.37;100.00;101253.88;5073463;28;20021;-68
2023/07/15 04:36:05;;;;;;;8.75;5.50;;;;;;;25.30;100.00;101259.59;5073600;28;20032;-70
2023/07/15 04:38:30;;;;;;;10.07;5.18;;;;;;;25.14;100.00;101210.34;5073088;28;20131;-68
2023/07/15 04:44:17;;;;;;;8.82;5.25;;;;;;;25.03;100.00;101170.38;5073769;28;20062;-70
2023/07/15 04:46:43;;;;;;;9.90;4.93;;;;;;;25.14;100.00;101176.50;5072746;28;20415;-73
2023/07/15 04:49:09;;;;;;;13.05;6.25;;;;;;;25.81;100.00;101270.81;5073243;28;20056;-70
2023/07/15 04:51:34;;;;;;;14.57;5.85;;;;;;;25.42;100.00;101196.28;5071934;28;20025;-71
2023/07/15 04:57:22;;;;;;;11.43;6.65;;;;;;;26.28;100.00;101287.38;5073188;28;20047;-70
2023/07/15 04:59:48;;;;;;;14.80;6.38;;;;;;;25.79;100.00;101248.28;5071958;28;20036;-69
2023/07/15 05:02:14;;;;;;;13.38;6.05;;;;;;;26.21;100.00;101251.41;5071672;28;20039;-70
2023/07/15 05:04:39;;;;;;;12.73;6.15;;;;;;;26.57;100.00;101293.91;5072882;28;20103;-69
2023/07/15 05:07:05;;;;;;;11.32;5.88;;;;;;;27.06;100.00;101298.13;5072298;28;20033;-69
2023/07/15 05:09:31;;;;;;;8.38;5.10;;;;;;;26.88;100.00;101278.63;5073182;28;20550;-69
2023/07/15 05:11:57;;;;;;;10.93;5.25;;;;;;;26.85;100.00;101287.53;5071413;28;20399;-69
2023/07/15 05:17:44;;;;;;;;;;;;;;;26.77;100.00;101271.59;5073242;28;20082;-69
2023/07/15 05:20:10;;;;;;;8.90;5.27;;;;;;;26.98;100.00;101284.81;5072075;28;19908;-69
2023/07/15 05:22:36;;;;;;;13.95;6.13;;;;;;;27.16;100.00;101273.81;5070453;28;20670;-69
2023/07/15 05:25:01;;;;;;;16.63;7.53;;;;;;;27.13;100.00;101213.13;5072845;28;20024;-70
2023/07/15 05:27:26;;;;;;;10.88;5.60;;;;;;;27.01;100.00;101183.56;5070764;28;20047;-69
2023/07/15 05:33:13;;;;;;;8.70;4.80;;;;;;;27.40;100.00;101222.31;5072765;28;20043;-69
2023/07/15 05:39:00;;;;;;;10.15;4.45;;;;;;;27.56;100.00;101248.06;5072667;28;20035;-71
2023/07/15 05:44:47;;;;;;;;;;;;;;;27.69;100.00;101277.50;5073067;28;20103;-69
2023/07/15 05:50:36;;;;;;;11.05;4.63;;;;;;;28.29;100.00;101275.28;5072560;28;20308;-70
2023/07/15 05:53:05;;;;;;;9.27;4.35;;;;;;;28.21;100.00;101276.84;5072152;28;20082;-70
2023/07/15 05:55:34;;;;;;;9.57;4.55;;;;;;;28.07;100.00;101220.41;5072266;28;20052;-71
2023/07/15 06:01:21;;;;;;;11.40;4.47;;;;;;;28.38;100.00;101272.88;5072261;28;20553;-71
2023/07/15 06:03:48;;;;;;;9.25;4.55;;;;;;;28.25;100.00;101213.69;5070596;28;20028;-71
2023/07/15 06:06:13;;;;;;;13.63;4.30;;;;;;;28.40;100.00;101261.34;5072099;28;20039;-72
2023/07/15 06:08:39;;;;;;;8.15;4.40;;;;;;;28.22;100.00;101200.03;5071555;28;20028;-72
2023/07/15 06:14:26;;;;;;;;;;;;;;;28.50;100.00;101256.16;5072680;28;20566;-73
2023/07/15 06:16:51;;;;;;;7.47;4.03;;;;;;;28.15;100.00;101197.06;5071603;28;20006;-70
2023/07/15 06:19:16;;;;;;;10.70;4.35;;;;;;;28.18;100.00;101154.13;5070263;28;20273;-72
2023/07/15 06:21:42;;;;;;;10.50;4.35;;;;;;;28.96;100.00;101181.50;5071917;28;20036;-73
2023/07/15 06:27:29;;;;;;;10.82;4.00;;;;;;;28.47;100.00;101191.81;5072132;28;20043;-72
2023/07/15 06:29:54;;;;;;;6.80;3.60;;;;;;;28.43;100.00;101166.00;5071236;28;20386;-69
2023/07/15 06:32:20;;;;;;;9.57;4.32;;;;;;;28.77;100.00;101178.78;5072346;28;20028;-69
2023/07/15 06:34:45;;;;;;;8.40;3.65;;;;;;;28.37;100.00;101166.50;5072061;28;20024;-69
2023/07/15 06:40:32;;;;;;;8.70;4.05;;;;;;;28.70;100.00;101163.72;5071924;28;20060;-69
2023/07/15 06:42:58;;;;;;;5.97;3.88;;;;;;;29.12;100.00;101213.28;5071384;28;20448;-69
2023/07/15 06:45:32;;;;;;;7.45;3.78;;;;;;;28.80;100.00;101168.03;5070509;28;20033;-71
2023/07/15 06:47:57;;;;;;;8.57;3.80;;;;;;;28.76;100.00;101160.59;5071316;28;20051;-70
2023/07/15 06:53:44;;;;;;;10.00;3.47;;;;;;;28.41;100.00;101144.34;5071677;28;20039;-69
2023/07/15 06:56:10;;;;;;;7.22;3.72;;;;;;;28.94;100.00;101159.03;5071548;28;20107;-70
2023/07/15 06:58:35;;;;;;;7.60;3.53;;;;;;;29.15;100.00;101140.66;5071588;28;20111;-70
2023/07/15 07:01:01;;;;;;;13.25;4.45;;;;;;;29.36;100.00;101184.16;5071053;28;20039;-70
2023/07/15 07:03:27;;;;;;;8.15;4.40;;;;;;;29.50;100.00;101204.75;5071690;28;20062;-70
2023/07/15 07:09:14;;;;;;;11.05;4.10;;;;;;;29.04;100.00;101160.72;5071550;28;20112;-71
2023/07/15 07:15:01;;;;;;;;;;;;;;;29.35;100.00;101198.25;5071890;28;20081;-69
2023/07/15 07:20:48;;;;;;;18.95;4.82;;;;;;;29.05;100.00;101137.97;5073915;28;20397;-68
2023/07/15 07:23:13;;;;;;;29.55;5.40;;;;;;;29.29;100.00;101132.41;5072447;28;20135;-70
2023/07/15 07:25:41;;;;;;;47.35;6.60;;;;;;;28.95;100.00;101122.22;5074701;28;20024;-70
2023/07/15 07:28:07;;;;;;;40.03;5.95;;;;;;;29.51;100.00;101190.72;5073098;28;20024;-68
2023/07/15 07:30:32;;;;;;;21.55;5.20;;;;;;;29.72;100.00;101178.34;5074800;28;20407;-68
2023/07/15 07:32:58;;;;;;;38.78;6.30;;;;;;;29.56;100.00;101169.31;5074140;28;20124;-68
2023/07/15 07:35:23;;;;;;;70.05;7.78;;;;;;;29.53;100.00;101136.34;5074852;28;20028;-68
2023/07/15 07:37:49;;;;;;;49.00;7.32;;;;;;;29.94;100.00;101185.13;5073080;28;20033;-67
2023/07/15 07:43:37;;;;;;;28.60;4.95;;;;;;;30.25;100.00;101089.50;5074859;28;20066;-70
2023/07/15 07:49:24;;;;;;;;;;;;;;;31.66;100.00;101168.88;5075241;28;20085;-68
2023/07/15 07:51:50;;;;;;;9.17;3.97;;;;;;;30.97;100.00;101113.38;5073803;28;20376;-68
2023/07/15 07:54:15;;;;;;;12.80;4.38;;;;;;;31.89;100.00;101148.22;5073134;28;20278;-68
2023/07/15 07:56:40;;;;;;;6.60;3.97;;;;;;;31.31;100.00;101151.25;5072711;28;20021;-69
2023/07/15 08:02:28;;;;;;;10.27;3.97;;;;;;;31.82;100.00;101073.47;5074581;28;20081;-70
2023/07/15 08:04:53;;;;;;;12.57;3.90;;;;;;;32.49;100.00;101052.56;5072724;28;20024;-68
2023/07/15 08:07:19;;;;;;;10.25;3.95;;;;;;;32.69;100.00;101068.97;5073609;28;20111;-68
2023/07/15 08:09:44;;;;;;;7.32;3.75;;;;;;;32.55;100.00;101040.56;5073780;28;20028;-68
2023/07/15 08:12:09;;;;;;;8.85;3.63;;;;;;;32.83;100.00;100976.94;5074207;28;20060;-68
2023/07/15 08:14:35;;;;;;;12.10;3.47;;;;;;;31.80;100.00;100931.53;5073469;28;20029;-74
2023/07/15 08:17:00;;;;;;;8.73;3.78;;;;;;;31.72;100.00;100962.22;5074465;28;20025;-73
2023/07/15 08:19:26;;;;;;;8.43;3.70;;;;;;;32.49;100.00;101002.53;5073801;28;20067;-71
2023/07/15 08:21:51;;;;;;;21.75;4.45;;;;;;;31.86;100.00;100962.50;5072251;28;20028;-74
2023/07/15 08:24:17;;;;;;;14.70;4.70;;;;;;;32.79;100.00;100958.97;5071571;28;20043;-73
2023/07/15 08:26:42;;;;;;;19.30;4.50;;;;;;;32.40;100.00;100884.91;5074159;28;20029;-72
2023/07/15 08:29:07;;;;;;;8.77;3.95;;;;;;;32.01;100.00;100907.50;5073828;28;20047;-69
2023/07/15 08:34:58;;;;;;;10.32;3.85;;;;;;;31.86;100.00;100854.59;5073910;28;20042;-70
2023/07/15 08:37:24;;;;;;;18.55;4.55;;;;;;;32.65;100.00;100926.16;5073740;28;20029;-68
2023/07/15 08:39:49;;;;;;;22.38;4.38;;;;;;;32.85;100.00;100916.13;5071636;28;20030;-68
2023/07/15 08:42:15;;;;;;;36.17;6.15;;;;;;;32.42;100.00;100860.06;5072059;28;20036;-70
2023/07/15 08:48:03;;;;;;;19.70;4.50;;;;;;;33.13;100.00;100855.06;5073741;28;20098;-69
2023/07/15 08:50:33;;;;;;;38.30;6.38;;;;;;;32.91;100.00;100817.94;5072059;28;20032;-71
2023/07/15 08:53:00;;;;;;;72.20;9.23;;;;;;;32.85;100.00;100848.44;5073108;28;20415;-69
2023/07/15 08:55:30;;;;;;;16.35;4.72;;;;;;;32.48;100.00;100839.34;5073466;28;20038;-72
2023/07/15 09:01:17;;;;;;;22.05;4.95;;;;;;;32.46;100.00;100793.91;5073105;28;20035;-73
2023/07/15 09:07:05;;;;;;;9.90;3.97;;;;;;;33.70;100.00;100837.28;5073286;28;20027;-72
2023/07/15 09:12:54;;;;;;;11.30;5.00;;;;;;;33.61;100.00;100772.34;5073197;28;20051;-73
2023/07/15 09:15:19;;;;;;;7.57;4.18;;;;;;;33.04;100.00;100795.38;5071428;28;20020;-71
2023/07/15 09:17:54;;;;;;;11.05;4.07;;;;;;;33.22;100.00;100801.28;5072863;28;20467;-72
2023/07/15 09:20:21;;;;;;;34.80;5.50;;;;;;;33.28;100.00;100807.69;5072922;28;20051;-68
2023/07/15 09:26:15;;;;;;;68.85;7.63;;;;;;;33.74;100.00;100809.56;5062590;28;20134;-71
2023/07/15 09:28:43;;;;;;;40.28;6.57;;;;;;;33.84;100.00;100791.69;5072546;28;20486;-68
2023/07/15 09:31:08;;;;;;;10.38;3.70;;;;;;;33.13;100.00;100727.66;5071316;28;20032;-69
2023/07/15 09:36:55;;;;;;;8.32;3.90;;;;;;;33.04;100.00;100750.56;5072731;28;20078;-70
2023/07/15 09:39:23;;;;;;;13.15;4.55;;;;;;;33.11;100.00;100745.44;5070914;28;20032;-70
2023/07/15 09:42:05;;;;;;;9.80;3.78;;;;;;;33.52;100.00;100783.91;5071636;28;20029;-70
2023/07/15 09:44:39;;;;;;;6.22;4.00;;;;;;;34.11;100.00;100798.34;5072400;28;20030;-70
2023/07/15 09:47:05;;;;;;;9.10;4.25;;;;;;;33.31;100.00;100683.41;5072403;28;20020;-70
2023/07/15 09:49:32;;;;;;;14.65;4.85;;;;;;;33.96;100.00;100785.03;5070652;28;20040;-71
2023/07/15 09:55:20;;;;;;;8.35;4.00;;;;;;;33.93;100.00;100743.13;5072571;28;20601;-71
2023/07/15 10:01:13;;;;;;;9.35;4.10;;;;;;;34.55;100.00;100766.81;5072533;28;20585;-70
2023/07/15 10:07:04;;;;;;;11.77;4.53;;;;;;;33.91;100.00;100729.25;5072386;28;20035;-71
2023/07/15 10:09:33;;;;;;;7.50;4.05;;;;;;;34.58;100.00;100748.00;5070488;28;20111;-71
2023/07/15 10:12:00;;;;;;;7.53;4.30;;;;;;;34.46;100.00;100717.66;5070942;28;20033;-71
2023/07/15 10:14:27;;;;;;;10.82;4.20;;;;;;;35.00;100.00;100768.59;5071954;28;20036;-71
2023/07/15 10:20:15;;;;;;;10.80;4.82;;;;;;;33.23;100.00;100736.19;5072154;28;20430;-70
2023/07/15 10:26:02;;;;;;;9.57;4.50;;;;;;;34.48;100.00;100763.25;5072164;28;20056;-73
2023/07/15 10:32:12;;;;;;;8.88;5.40;;;;;;;34.04;100.00;100773.63;5071882;28;20559;-71
2023/07/15 10:38:19;;;;;;;7.63;4.60;;;;;;;34.37;100.00;100756.53;5072109;28;20163;-70
2023/07/15 10:40:52;;;;;;;9.00;4.43;;;;;;;34.53;100.00;100700.13;5071576;28;20028;-71
2023/07/15 10:43:22;;;;;;;8.45;4.45;;;;;;;34.83;100.00;100713.19;5070259;28;20021;-71
2023/07/15 10:48:50;;;;;;;7.25;4.30;;;;;;;34.36;100.00;100677.47;5071836;28;19969;-72
2023/07/15 10:54:39;;;;;;;7.00;4.32;;;;;;;34.47;100.00;100685.81;5074360;28;20093;-72
2023/07/15 10:57:15;;;;;;;7.50;4.45;;;;;;;34.40;100.00;100642.59;5075473;28;20445;-72
2023/07/15 10:59:44;;;;;;;5.75;4.25;;;;;;;35.43;100.00;100696.31;5073892;28;20398;-73
2023/07/15 11:02:11;;;;;;;7.22;4.40;;;;;;;36.05;100.00;100684.22;5074276;28;20029;-74
2023/07/15 11:04:38;;;;;;;6.97;4.35;;;;;;;36.67;100.00;100739.97;5074146;28;20035;-73
2023/07/15 11:07:06;;;;;;;8.23;5.03;;;;;;;35.88;100.00;100732.28;5075625;28;20480;-73
2023/07/15 11:09:32;;;;;;;7.07;4.63;;;;;;;35.90;100.00;100711.72;5075401;28;20453;-71
2023/07/15 11:11:58;;;;;;;11.07;4.82;;;;;;;35.46;100.00;100719.78;5073892;28;20024;-72
2023/07/15 11:14:28;;;;;;;8.95;5.10;;;;;;;35.48;100.00;100712.47;5073151;28;20025;-70
2023/07/15 11:16:58;;;;;;;9.40;5.15;;;;;;;34.50;100.00;100698.66;5073808;28;20036;-72
2023/07/15 11:19:28;;;;;;;9.45;4.53;;;;;;;34.43;100.00;100710.91;5075954;28;20052;-73
2023/07/15 11:25:17;;;;;;;9.88;4.70;;;;;;;34.59;100.00;100654.47;5075735;28;20202;-72
2023/07/15 11:27:42;;;;;;;6.75;4.70;;;;;;;34.70;100.00;100676.00;5075348;28;20105;-72
2023/07/15 11:30:09;;;;;;;6.38;4.72;;;;;;;35.04;100.00;100688.72;5074950;28;20527;-71
2023/07/15 11:35:56;;;;;;;9.30;5.03;;;;;;;35.76;100.00;100657.81;5075375;28;20028;-72
2023/07/15 11:41:44;;;;;;;9.05;5.20;;;;;;;34.29;100.00;100621.88;5075030;28;20036;-72
2023/07/15 11:47:34;;;;;;;10.85;5.55;;;;;;;34.89;100.00;100686.03;5074850;28;20032;-69
2023/07/15 11:53:26;;;;;;;9.80;5.57;;;;;;;35.27;100.00;100694.69;5074765;28;20433;-72
2023/07/15 11:55:52;;;;;;;8.73;5.15;;;;;;;35.20;100.00;100632.94;5073427;28;20021;-71
2023/07/15 11:58:36;;;;;;;8.38;5.40;;;;;;;36.56;100.00;100676.88;5076126;28;20032;-79
2023/07/15 12:01:01;;;;;;;8.25;5.40;;;;;;;35.68;100.00;100674.63;5074743;28;20467;-82
2023/07/15 12:03:27;;;;;;;10.35;5.38;;;;;;;35.93;100.00;100663.72;5075566;28;20036;-75
2023/07/15 12:05:52;;;;;;;10.07;5.90;;;;;;;35.38;100.00;100598.94;5075122;28;20489;-77
2023/07/15 12:08:19;;;;;;;7.28;5.78;;;;;;;35.08;100.00;100652.13;5075897;28;20109;-78
2023/07/15 12:14:10;;;;;;;8.85;5.80;;;;;;;36.07;100.00;100645.06;5075918;28;20066;-79
2023/07/15 12:16:37;;;;;;;13.65;6.88;;;;;;;35.47;100.00;100669.31;5075786;28;20032;-81
2023/07/15 12:19:04;;;;;;;11.35;5.90;;;;;;;35.54;100.00;100662.25;5074991;28;20118;-78
2023/07/15 12:21:30;;;;;;;8.20;5.85;;;;;;;35.22;100.00;100652.09;5075741;28;20528;-80
2023/07/15 12:31:00;;;;;;;11.98;5.32;;;;;;;34.23;100.00;100598.00;5075421;28;20207;-75
2023/07/15 12:33:25;;;;;;;9.50;6.15;;;;;;;33.81;100.00;100567.63;5075037;28;20505;-77
2023/07/15 12:35:51;;;;;;;12.00;7.20;;;;;;;34.47;100.00;100598.59;5074447;28;20024;-80
2023/07/15 12:38:16;;;;;;;7.57;6.22;;;;;;;35.12;100.00;100601.28;5074958;28;20021;-79
2023/07/15 12:44:03;;;;;;;13.43;6.65;;;;;;;35.14;100.00;100632.88;5075364;28;20031;-77
2023/07/15 12:46:28;;;;;;;9.30;5.22;;;;;;;35.40;100.00;100627.88;5074728;28;20024;-74
2023/07/15 12:48:54;;;;;;;10.75;5.85;;;;;;;35.16;100.00;100584.03;5072933;28;20501;-76
2023/07/15 12:51:19;;;;;;;11.60;5.70;;;;;;;35.22;100.00;100625.63;5074274;28;20481;-74
2023/07/15 12:57:07;;;;;;;9.23;5.28;;;;;;;35.21;100.00;100617.88;5075498;28;20039;-76
2023/07/15 13:02:53;;;;;;;7.57;5.75;;;;;;;35.53;100.00;100602.41;5074482;28;20066;-75
2023/07/15 13:08:41;;;;;;;9.27;5.40;;;;;;;35.49;100.00;100609.09;5074776;28;20070;-77
2023/07/15 13:14:28;;;;;;;7.80;5.55;;;;;;;36.00;100.00;100615.06;5074686;28;20044;-75
2023/07/15 13:16:53;;;;;;;8.70;6.03;;;;;;;35.72;100.00;100554.09;5071534;28;20020;-75
2023/07/15 13:19:18;;;;;;;11.45;6.18;;;;;;;36.08;100.00;100606.16;5074151;28;20505;-77
2023/07/15 13:21:44;;;;;;;9.63;6.03;;;;;;;35.21;100.00;100586.97;5072438;28;20024;-76
2023/07/15 13:24:09;;;;;;;11.20;6.10;;;;;;;36.04;100.00;100595.13;5072428;28;20028;-74
2023/07/15 13:33:31;;;;;;;9.82;6.50;;;;;;;35.63;100.00;100549.97;5074331;28;19915;-77
2023/07/15 13:39:38;;;;;;;10.70;5.95;;;;;;;36.41;100.00;100591.31;5074377;28;20048;-76
2023/07/15 13:42:11;;;;;;;9.35;6.20;;;;;;;35.01;100.00;100556.81;5073819;28;20056;-75
2023/07/15 13:44:37;;;;;;;12.23;6.55;;;;;;;35.27;100.00;100595.97;5070245;28;20033;-75
2023/07/15 13:50:24;;;;;;;9.38;6.38;;;;;;;35.67;100.00;100532.69;5074196;28;20516;-76
2023/07/15 13:52:50;;;;;;;7.80;5.55;;;;;;;36.00;100.00;100590.41;5072376;28;20025;-75
2023/07/15 13:55:16;;;;;;;10.40;5.97;;;;;;;35.98;100.00;100573.88;5072986;28;20430;-76
2023/07/15 13:57:42;;;;;;;9.80;6.18;;;;;;;35.87;100.00;100587.63;5072369;28;20383;-75
2023/07/15 14:03:29;;;;;;;10.77;6.13;;;;;;;36.04;100.00;100522.78;5074173;28;20031;-75
2023/07/15 14:05:55;;;;;;;8.00;5.95;;;;;;;35.16;100.00;100494.09;5073002;28;20025;-76
2023/07/15 14:08:21;;;;;;;11.05;6.00;;;;;;;35.59;100.00;100572.53;5071996;28;20029;-75
2023/07/15 14:10:46;;;;;;;8.48;5.72;;;;;;;36.08;100.00;100575.19;5072405;28;20462;-75
2023/07/15 14:16:34;;;;;;;11.02;6.32;;;;;;;34.55;100.00;100482.22;5073728;28;20090;-74
2023/07/15 14:19:00;;;;;;;11.25;5.90;;;;;;;35.00;100.00;100522.63;5073434;28;20108;-74
2023/07/15 14:21:25;;;;;;;10.35;5.85;;;;;;;34.99;100.00;100550.06;5071761;28;20118;-77
2023/07/15 14:23:51;;;;;;;8.80;5.80;;;;;;;34.51;100.00;100515.31;5071853;28;20131;-76
2023/07/15 14:29:38;;;;;;;8.75;6.05;;;;;;;35.21;100.00;100552.56;5075827;28;20509;-77
2023/07/15 14:35:25;;;;;;;7.95;5.97;;;;;;;35.40;100.00;100557.22;5077872;28;20073;-75
2023/07/15 14:37:52;;;;;;;9.07;6.38;;;;;;;35.43;100.00;100506.59;5076927;28;20029;-77
2023/07/15 14:40:17;;;;;;;7.72;5.80;;;;;;;35.08;100.00;100541.88;5077871;28;20020;-75
2023/07/15 14:42:43;;;;;;;10.70;5.95;;;;;;;35.16;100.00;100554.16;5076237;28;20123;-74
2023/07/15 14:48:30;;;;;;;10.52;5.40;;;;;;;34.55;100.00;100571.25;5077367;28;20513;-76
2023/07/15 14:50:55;;;;;;;8.50;5.50;;;;;;;33.73;100.00;100522.88;5075903;28;20119;-77
2023/07/15 14:53:21;;;;;;;9.80;5.40;;;;;;;34.18;100.00;100576.59;5075983;28;20028;-74
2023/07/15 14:55:46;;;;;;;9.85;5.55;;;;;;;34.27;100.00;100583.44;5075771;28;20471;-75
2023/07/15 15:01:33;;;;;;;12.18;5.38;;;;;;;33.68;100.00;100535.75;5077036;28;20059;-78
2023/07/15 15:03:59;;;;;;;6.97;5.35;;;;;;;34.13;100.00;100586.88;5076011;28;20479;-75
2023/07/15 15:06:24;;;;;;;7.35;5.55;;;;;;;33.78;100.00;100531.06;5075870;28;20031;-77
2023/07/15 15:08:50;;;;;;;10.00;5.50;;;;;;;33.68;100.00;100583.25;5076501;28;20474;-77
2023/07/15 15:11:15;;;;;;;11.68;5.57;;;;;;;33.22;100.00;100524.38;5077224;28;20443;-76
2023/07/15 15:13:41;;;;;;;8.95;5.35;;;;;;;33.64;100.00;100539.75;5076127;28;20094;-77
2023/07/15 15:16:10;;;;;;;13.55;5.90;;;;;;;33.87;100.00;100527.31;5076273;28;20533;-76
2023/07/15 15:21:56;;;;;;;;;;;;;;;34.32;100.00;100599.56;5077597;28;20535;-79
2023/07/15 15:24:25;;;;;;;9.07;5.33;;;;;;;33.70;100.00;100539.03;5075140;28;19912;-77
2023/07/15 15:26:50;;;;;;;11.55;5.72;;;;;;;33.86;100.00;100538.06;5075741;28;20324;-74
2023/07/15 15:29:16;;;;;;;11.32;5.93;;;;;;;34.50;100.00;100581.56;5074623;28;20101;-73
2023/07/15 15:31:41;;;;;;;11.63;5.25;;;;;;;33.98;100.00;100526.94;5076065;28;20043;-75